Bookmark and Share
Track history (hours):
 

Thomson Spirit

Last reported at 2014-Apr-23 22:27 UTC. Time now 2014-Apr-24 09:24 UTC.
Position N 34°47' E 032°10'.

Length 214 m; draft 7.8 m.

Type: Passenger vessel. MMSI: 248368000.

NotesDate/timePositionNaut miles runAvg speedWind from/ knotsBaromVisibWave heightAir tempDewpointWater temp
2014-Apr-23 22:27N 34°47' E 032°10'1815.2
2014-Apr-23 21:14N 34°39' E 032°30'1115.5
2014-Apr-23 20:33N 34°36' E 032°42'1615.7
2014-Apr-23 19:33N 34°32' E 033°01'8 7.8
2014-Apr-23 18:33N 34°39' E 033°01'0 0.1
2014-Apr-23 17:18N 34°39' E 033°01'0 0.0
2014-Apr-23 16:33N 34°39' E 033°01'0 0.0
2014-Apr-23 15:24N 34°39' E 033°01'0 0.0
2014-Apr-23 14:23N 34°39' E 033°01'0 0.0
2014-Apr-23 13:14N 34°39' E 033°01'0 0.0
2014-Apr-23 12:30N 34°39' E 033°01'0 0.0
2014-Apr-23 11:32N 34°39' E 033°01'0 0.0
2014-Apr-23 10:32N 34°39' E 033°01'0 0.0
2014-Apr-23 09:33N 34°39' E 033°01'0 0.0
2014-Apr-23 08:30N 34°39' E 033°01'0 0.0
2014-Apr-23 07:27N 34°39' E 033°01'0 0.0
2014-Apr-23 06:32N 34°39' E 033°01'0 0.0
2014-Apr-23 05:29N 34°39' E 033°01'0 0.0
2014-Apr-23 04:33N 34°39' E 033°01'5 4.8
2014-Apr-23 03:34N 34°35' E 033°04'1111.0
2014-Apr-23 02:33N 34°33' E 032°51'1413.7
2014-Apr-23 01:33N 34°37' E 032°35'3014.8
2014-Apr-22 23:30N 34°50' E 032°01'1515.2
2014-Apr-22 22:32N 34°57' E 031°46'21410.1
2014-Apr-22 01:21N 36°30' E 027°49'7 8.0
2014-Apr-22 00:29N 36°32' E 027°41'7 8.1
2014-Apr-21 23:33N 36°34' E 027°32'25 8.3
2014-Apr-21 20:31N 36°56' E 027°17'1211.1
2014-Apr-21 19:26N 37°05' E 027°07'9 9.7
2014-Apr-21 18:32N 37°14' E 027°08'10 9.4
2014-Apr-21 17:27N 37°24' E 027°05'9 9.8
2014-Apr-21 16:31N 37°33' E 027°01'44 2.2
2014-Apr-20 20:05N 37°43' E 026°07'4 6.9
2014-Apr-20 19:33N 37°42' E 026°03'14 7.0
2014-Apr-20 17:30N 37°38' E 025°45'8 8.5
2014-Apr-20 16:32N 37°35' E 025°36'9 8.7
2014-Apr-20 15:33N 37°33' E 025°25'7 7.3
2014-Apr-20 14:33N 37°28' E 025°19'0 0.4
2014-Apr-20 13:30N 37°28' E 025°19'0 0.0
2014-Apr-20 12:32N 37°28' E 025°19'0 0.0
2014-Apr-20 11:32N 37°28' E 025°19'0 0.0
2014-Apr-20 10:30N 37°28' E 025°19'0 0.0
2014-Apr-20 09:31N 37°28' E 025°19'0 0.0
2014-Apr-20 08:32N 37°28' E 025°19'0 0.0
2014-Apr-20 07:32N 37°28' E 025°19'0 0.0
2014-Apr-20 06:32N 37°28' E 025°19'0 0.0
2014-Apr-20 05:30N 37°28' E 025°19'0 0.0
2014-Apr-20 04:32N 37°28' E 025°19'0 0.0
2014-Apr-20 03:32N 37°28' E 025°19'1 1.3
2014-Apr-20 02:33N 37°28' E 025°18'7 7.3
2014-Apr-20 01:33N 37°30' E 025°09'8 7.5
2014-Apr-20 00:33N 37°31' E 024°60'10 7.5
2014-Apr-19 23:14N 37°32' E 024°47'5 7.8
2014-Apr-19 22:32N 37°32' E 024°40'45 7.6
2014-Apr-19 16:33N 37°39' E 023°44'8 7.8
2014-Apr-19 15:33N 37°46' E 023°39'8 7.9
2014-Apr-19 14:33N 37°54' E 023°36'3 2.2
2014-Apr-19 13:10N 37°56' E 023°38'0 0.0
2014-Apr-19 12:15N 37°56' E 023°38'0 0.0
2014-Apr-19 11:28N 37°56' E 023°38'0 0.0
2014-Apr-19 10:21N 37°56' E 023°38'0 0.0
2014-Apr-19 09:27N 37°56' E 023°38'0 0.0
2014-Apr-19 08:33N 37°56' E 023°38'0 0.0
2014-Apr-19 07:21N 37°56' E 023°38'0 0.0
2014-Apr-19 06:15N 37°56' E 023°38'0 0.0
2014-Apr-19 05:16N 37°56' E 023°38'0 0.0
2014-Apr-19 04:28N 37°56' E 023°38'3 3.0
2014-Apr-19 03:33N 37°54' E 023°38'1010.2
2014-Apr-19 02:33N 37°44' E 023°43'11312.5
2014-Apr-18 17:32N 36°01' E 024°40'1414.6
2014-Apr-18 16:33N 35°49' E 024°49'1414.1
2014-Apr-18 15:33N 35°37' E 024°58'371 8.8
2014-Apr-16 21:32N 34°36' E 032°25'1414.8
2014-Apr-16 20:33N 34°33' E 032°42'1414.3
2014-Apr-16 19:33N 34°31' E 032°60'8 8.4
2014-Apr-16 18:33N 34°39' E 033°01'0 0.2
2014-Apr-16 17:31N 34°39' E 033°01'0 0.0
2014-Apr-16 16:32N 34°39' E 033°01'0 0.0
2014-Apr-16 15:31N 34°39' E 033°01'0 0.0
2014-Apr-16 14:32N 34°39' E 033°01'0 0.0
2014-Apr-16 13:32N 34°39' E 033°01'0 0.0
2014-Apr-16 12:32N 34°39' E 033°01'0 0.0
2014-Apr-16 11:32N 34°39' E 033°01'0 0.0
2014-Apr-16 10:31N 34°39' E 033°01'0 0.0
2014-Apr-16 09:32N 34°39' E 033°01'0 0.0
2014-Apr-16 08:32N 34°39' E 033°01'0 0.0
2014-Apr-16 07:32N 34°39' E 033°01'0 0.0
2014-Apr-16 06:32N 34°39' E 033°01'0 0.0
2014-Apr-16 05:31N 34°39' E 033°01'0 0.0
2014-Apr-16 04:31N 34°39' E 033°01'6 6.1
2014-Apr-16 03:33N 34°36' E 033°07'1010.3
2014-Apr-16 02:33N 34°27' E 033°14'11714.4
2014-Apr-15 18:28N 32°56' E 034°41'11 0.6
2014-Apr-15 00:32N 32°53' E 034°53'7 7.3
2014-Apr-14 23:34N 32°48' E 034°48'9 8.9
2014-Apr-14 22:33N 32°39' E 034°45'9 8.9
2014-Apr-14 21:33N 32°30' E 034°42'9 9.0
2014-Apr-14 20:33N 32°22' E 034°39'9 8.7
2014-Apr-14 19:33N 32°13' E 034°36'9 8.5
2014-Apr-14 18:32N 32°05' E 034°34'  

Dump ship's entire track history

sailing weather and tide predictions

Thomson Spirit — 9HA2336 — position and weather